createdAt,value
2019-02-19T00:01:34.463Z,6.03
2019-02-19T00:04:03.622Z,6.20
2019-02-19T00:06:32.794Z,5.33
2019-02-19T00:09:01.882Z,8.40
2019-02-19T00:11:30.943Z,6.97
2019-02-19T00:14:00.003Z,7.10
2019-02-19T00:16:29.053Z,6.53
2019-02-19T00:18:58.093Z,6.37
2019-02-19T00:21:27.104Z,7.50
2019-02-19T00:23:56.167Z,7.33
2019-02-19T00:26:25.224Z,6.30
2019-02-19T00:28:54.239Z,6.90
2019-02-19T00:31:23.235Z,5.73
2019-02-19T00:33:52.275Z,7.73
2019-02-19T00:36:21.315Z,6.90
2019-02-19T00:38:50.355Z,6.00
2019-02-19T00:41:19.339Z,8.30
2019-02-19T00:43:48.370Z,6.97
2019-02-19T00:46:17.457Z,9.87
2019-02-19T00:48:46.506Z,5.93
2019-02-19T00:51:15.411Z,7.07
2019-02-19T00:53:44.566Z,8.23
2019-02-19T00:56:13.577Z,7.47
2019-02-19T00:58:42.628Z,5.73
2019-02-19T01:01:11.608Z,6.63
2019-02-19T01:03:40.667Z,8.53
2019-02-19T01:06:09.665Z,5.93
2019-02-19T01:08:38.724Z,6.90
2019-02-19T01:11:07.744Z,6.20
2019-02-19T01:13:36.779Z,7.17
2019-02-19T01:16:05.742Z,6.10
2019-02-19T01:18:34.790Z,5.93
2019-02-19T01:21:03.786Z,5.67
2019-02-19T01:23:32.835Z,6.50
2019-02-19T01:26:01.930Z,6.83
2019-02-19T01:28:30.981Z,7.23
2019-02-19T01:30:59.911Z,7.30
2019-02-19T01:33:28.903Z,5.37
2019-02-19T01:35:57.896Z,6.17
2019-02-19T01:38:26.994Z,5.63
2019-02-19T01:40:55.988Z,7.23
2019-02-19T01:43:25.037Z,7.70
2019-02-19T01:45:54.028Z,6.00
2019-02-19T01:48:23.121Z,7.00
2019-02-19T01:50:52.146Z,7.23
2019-02-19T01:53:21.198Z,8.33
2019-02-19T01:55:50.224Z,7.80
2019-02-19T01:58:19.295Z,6.53
2019-02-19T02:00:48.349Z,7.17
2019-02-19T02:03:17.277Z,6.73
2019-02-19T02:05:46.268Z,8.63
2019-02-19T02:08:15.261Z,7.47
2019-02-19T02:10:44.262Z,9.20
2019-02-19T02:13:13.174Z,8.93
2019-02-19T02:15:42.912Z,10.10
2019-02-19T02:18:12.020Z,11.47
2019-02-19T02:20:41.065Z,8.53
2019-02-19T02:23:10.095Z,9.07
2019-02-19T02:25:39.166Z,9.40
2019-02-19T02:28:08.140Z,9.13
2019-02-19T02:30:37.155Z,11.47
2019-02-19T02:33:06.183Z,11.47
2019-02-19T02:35:35.201Z,13.00
2019-02-19T02:38:04.240Z,15.73
2019-02-19T02:40:33.100Z,12.83
2019-02-19T02:43:02.101Z,11.27
2019-02-19T02:45:31.145Z,12.03
2019-02-19T02:48:00.222Z,10.07
2019-02-19T02:50:29.191Z,14.93
2019-02-19T02:52:58.088Z,14.33
2019-02-19T02:55:27.130Z,11.00
2019-02-19T02:57:56.146Z,10.47
2019-02-19T03:00:25.194Z,12.53
2019-02-19T03:02:54.121Z,12.63
2019-02-19T03:05:25.288Z,15.03
2019-02-19T03:07:56.901Z,14.70
2019-02-19T03:10:25.939Z,14.13
2019-02-19T03:12:55.004Z,19.70
2019-02-19T03:15:23.963Z,16.93
2019-02-19T03:17:52.994Z,17.70
2019-02-19T03:20:22.039Z,16.73
2019-02-19T03:22:50.979Z,22.43
2019-02-19T03:25:19.976Z,18.60
2019-02-19T03:27:48.897Z,20.03
2019-02-19T03:30:17.916Z,16.23
2019-02-19T03:32:46.795Z,17.33
2019-02-19T03:35:15.816Z,21.80
2019-02-19T03:37:44.824Z,19.43
2019-02-19T03:40:13.841Z,17.03
2019-02-19T03:42:42.826Z,26.37
2019-02-19T03:45:11.971Z,19.53
2019-02-19T03:47:41.037Z,21.97
2019-02-19T03:50:10.086Z,21.63
2019-02-19T03:52:38.976Z,17.93
2019-02-19T03:55:08.027Z,22.40
2019-02-19T03:57:37.362Z,19.97
2019-02-19T04:00:06.252Z,18.30
2019-02-19T04:02:35.197Z,22.77
2019-02-19T04:05:04.090Z,24.57
2019-02-19T04:07:33.122Z,21.93
2019-02-19T04:10:02.093Z,17.80
2019-02-19T04:12:31.067Z,20.93
2019-02-19T04:14:59.994Z,19.23
2019-02-19T04:17:28.945Z,28.57
2019-02-19T04:19:57.944Z,24.67
2019-02-19T04:22:26.975Z,23.90
2019-02-19T04:24:55.935Z,20.73
2019-02-19T04:27:24.830Z,20.70
2019-02-19T04:29:53.931Z,21.33
2019-02-19T04:32:22.976Z,18.73
2019-02-19T04:34:52.171Z,16.83
2019-02-19T04:37:21.202Z,18.97
2019-02-19T04:39:50.181Z,20.00
2019-02-19T04:42:19.304Z,19.17
2019-02-19T04:44:48.321Z,20.73
2019-02-19T04:47:17.381Z,17.80
2019-02-19T04:49:46.369Z,22.53
2019-02-19T04:52:15.443Z,18.70
2019-02-19T04:54:44.470Z,17.87
2019-02-19T04:57:13.623Z,18.63
2019-02-19T04:59:42.688Z,20.53
2019-02-19T05:02:11.737Z,21.43
2019-02-19T05:04:40.769Z,17.93
2019-02-19T05:07:09.869Z,22.73
2019-02-19T05:09:38.918Z,18.97
2019-02-19T05:12:07.998Z,17.33
2019-02-19T05:14:37.013Z,16.53
2019-02-19T05:17:06.090Z,19.10
2019-02-19T05:19:34.995Z,15.30
2019-02-19T05:22:04.055Z,23.00
2019-02-19T05:24:33.064Z,19.93
2019-02-19T05:27:02.135Z,18.83
2019-02-19T05:29:31.161Z,18.97
2019-02-19T05:32:00.193Z,20.17
2019-02-19T05:34:29.386Z,24.07
2019-02-19T05:36:58.474Z,22.50
2019-02-19T05:39:27.518Z,20.63
2019-02-19T05:41:56.588Z,22.77
2019-02-19T05:44:25.748Z,22.47
2019-02-19T05:46:54.736Z,22.77
2019-02-19T05:49:23.797Z,24.70
2019-02-19T05:51:52.869Z,25.17
2019-02-19T05:54:24.455Z,26.30
2019-02-19T05:56:53.522Z,24.83
2019-02-19T05:59:22.689Z,26.17
2019-02-19T06:01:51.690Z,26.43
2019-02-19T06:04:20.864Z,24.47
2019-02-19T06:06:49.915Z,28.47
2019-02-19T06:09:20.256Z,29.10
2019-02-19T06:11:49.307Z,26.90
2019-02-19T06:14:20.192Z,26.77
2019-02-19T06:16:49.256Z,32.80
2019-02-19T06:19:18.458Z,36.43
2019-02-19T06:21:47.498Z,28.57
2019-02-19T06:24:16.565Z,30.63
2019-02-19T06:26:45.639Z,36.53
2019-02-19T06:29:14.741Z,31.33
2019-02-19T06:31:43.837Z,32.13
2019-02-19T06:34:14.311Z,32.50
2019-02-19T06:36:43.436Z,38.27
2019-02-19T06:39:12.484Z,33.80
2019-02-19T06:41:41.555Z,38.90
2019-02-19T06:44:10.648Z,33.67
2019-02-19T06:46:39.765Z,38.97
2019-02-19T06:49:08.996Z,31.73
2019-02-19T06:51:38.045Z,33.43
2019-02-19T06:54:07.113Z,34.87
2019-02-19T06:56:36.099Z,39.27
2019-02-19T06:59:05.254Z,30.97
2019-02-19T07:01:53.922Z,32.40
2019-02-19T07:04:26.847Z,31.90
2019-02-19T07:06:55.828Z,33.33
2019-02-19T07:09:24.945Z,31.97
2019-02-19T07:11:53.988Z,33.23
2019-02-19T07:14:23.001Z,33.43
2019-02-19T07:16:52.116Z,29.50
2019-02-19T07:19:21.324Z,26.10
2019-02-19T07:21:50.399Z,33.03
2019-02-19T07:24:19.489Z,26.27
2019-02-19T07:26:48.804Z,31.73
2019-02-19T07:29:17.951Z,27.90
2019-02-19T07:31:47.019Z,29.67
2019-02-19T07:34:16.101Z,30.70
2019-02-19T07:36:45.201Z,27.70
2019-02-19T07:39:14.293Z,27.40
2019-02-19T07:41:43.229Z,27.63
2019-02-19T07:44:12.227Z,30.17
2019-02-19T07:46:41.316Z,26.40
2019-02-19T07:49:10.279Z,25.70
2019-02-19T07:51:39.400Z,25.23
2019-02-19T07:54:08.365Z,26.90
2019-02-19T07:56:37.447Z,25.97
2019-02-19T07:59:06.565Z,24.00
2019-02-19T08:01:35.565Z,26.03
2019-02-19T08:04:04.660Z,24.70
2019-02-19T08:06:33.706Z,21.30
2019-02-19T08:09:03.642Z,25.63
2019-02-19T08:11:32.738Z,27.20
2019-02-19T08:14:03.393Z,24.10
2019-02-19T08:16:33.543Z,22.07
2019-02-19T08:19:02.695Z,26.63
2019-02-19T08:21:31.773Z,24.27
2019-02-19T08:24:00.866Z,23.77
2019-02-19T08:26:30.008Z,22.03
2019-02-19T08:29:07.136Z,23.87
2019-02-19T08:31:29.869Z,24.57
2019-02-19T08:33:58.959Z,20.43
2019-02-19T08:36:29.677Z,20.47
2019-02-19T08:38:59.335Z,23.17
2019-02-19T08:41:28.383Z,23.83
2019-02-19T08:43:57.452Z,23.53
2019-02-19T08:46:26.563Z,21.83
2019-02-19T08:48:55.641Z,25.67
2019-02-19T08:51:31.552Z,20.50
2019-02-19T08:54:00.717Z,20.17
2019-02-19T08:56:29.885Z,19.83
2019-02-19T08:58:59.036Z,17.37
2019-02-19T09:01:28.097Z,18.93
2019-02-19T09:03:57.355Z,15.63
2019-02-19T09:06:27.721Z,18.23
2019-02-19T09:08:59.705Z,18.27
2019-02-19T09:11:32.624Z,17.77
2019-02-19T09:14:04.320Z,17.23
2019-02-19T09:16:35.191Z,12.57
2019-02-19T09:19:05.611Z,15.07
2019-02-19T09:21:36.446Z,15.60
2019-02-19T09:24:09.436Z,14.20
2019-02-19T09:26:38.094Z,14.47
2019-02-19T09:29:11.791Z,14.17
2019-02-19T09:31:42.639Z,12.57
2019-02-19T09:34:13.767Z,14.23
2019-02-19T09:36:44.763Z,14.97
2019-02-19T09:39:14.552Z,13.47
2019-02-19T09:41:44.610Z,12.87
2019-02-19T09:44:14.859Z,11.47
2019-02-19T09:46:49.264Z,14.60
2019-02-19T09:49:21.436Z,14.87
2019-02-19T09:51:51.632Z,13.13
2019-02-19T09:54:26.153Z,14.30
2019-02-19T09:56:59.852Z,13.50
2019-02-19T09:59:30.005Z,12.33
2019-02-19T10:02:35.940Z,8.03
2019-02-19T10:05:17.402Z,14.33
2019-02-19T10:07:53.269Z,12.10
2019-02-19T10:10:23.789Z,11.13
2019-02-19T10:12:55.577Z,10.67
2019-02-19T10:15:25.710Z,13.27
2019-02-19T10:17:55.710Z,11.30
2019-02-19T10:20:25.705Z,10.83
2019-02-19T10:22:56.196Z,13.73
2019-02-19T10:25:27.981Z,14.33
2019-02-19T10:27:57.973Z,12.97
2019-02-19T10:30:28.467Z,11.47
2019-02-19T10:32:58.649Z,12.87
2019-02-19T10:35:29.172Z,9.73
2019-02-19T10:38:03.086Z,8.73
2019-02-19T10:40:33.353Z,14.40
2019-02-19T10:43:03.425Z,10.23
2019-02-19T10:45:33.897Z,8.70
2019-02-19T10:48:06.903Z,11.97
2019-02-19T10:50:40.960Z,6.83
2019-02-19T10:53:13.138Z,13.20
2019-02-19T10:55:43.335Z,9.37
2019-02-19T10:58:22.246Z,10.20
2019-02-19T11:00:48.600Z,7.97
2019-02-19T11:03:21.334Z,8.13
2019-02-19T11:05:51.920Z,7.57
2019-02-19T11:08:23.009Z,9.37
2019-02-19T11:10:53.847Z,8.33
2019-02-19T11:13:30.506Z,7.90
2019-02-19T11:16:00.621Z,8.93
2019-02-19T11:18:35.172Z,9.30
2019-02-19T11:21:07.683Z,10.13
2019-02-19T11:23:40.299Z,9.03
2019-02-19T11:26:16.704Z,7.80
2019-02-19T11:28:47.007Z,6.53
2019-02-19T11:31:18.931Z,10.47
2019-02-19T11:33:50.156Z,10.40
2019-02-19T11:36:20.244Z,8.03
2019-02-19T11:38:50.695Z,9.40
2019-02-19T11:41:20.755Z,8.47
2019-02-19T11:43:53.489Z,9.77
2019-02-19T11:46:24.257Z,8.27
2019-02-19T11:48:56.261Z,6.50
2019-02-19T11:51:29.997Z,9.53
2019-02-19T11:54:00.313Z,10.27
2019-02-19T11:56:30.975Z,8.47
2019-02-19T11:59:02.306Z,7.93
2019-02-19T12:01:33.282Z,8.50
2019-02-19T12:04:03.311Z,8.20
2019-02-19T12:06:34.116Z,7.83
2019-02-19T12:09:12.797Z,6.90
2019-02-19T12:11:42.785Z,7.00
2019-02-19T12:14:13.056Z,9.23
2019-02-19T12:16:43.646Z,7.33
2019-02-19T12:19:13.691Z,10.00
2019-02-19T12:21:43.742Z,9.07
2019-02-19T12:24:12.809Z,11.27
2019-02-19T12:26:41.895Z,7.87
2019-02-19T12:29:10.887Z,7.90
2019-02-19T12:31:39.969Z,9.17
2019-02-19T12:34:08.972Z,9.17
2019-02-19T12:36:37.934Z,11.57
2019-02-19T12:39:07.036Z,9.70
2019-02-19T12:41:36.113Z,9.13
2019-02-19T12:44:05.119Z,7.80
2019-02-19T12:46:34.157Z,7.67
2019-02-19T12:49:03.221Z,12.00
2019-02-19T12:51:32.215Z,7.57
2019-02-19T12:54:01.280Z,8.67
2019-02-19T12:56:30.332Z,7.57
2019-02-19T12:58:59.350Z,11.27
2019-02-19T13:01:28.430Z,11.87
2019-02-19T13:03:57.425Z,8.93
2019-02-19T13:06:26.465Z,10.03
2019-02-19T13:08:56.313Z,10.60
2019-02-19T13:11:25.359Z,8.50
2019-02-19T13:13:54.369Z,8.23
2019-02-19T13:16:23.308Z,8.07
2019-02-19T13:18:52.361Z,7.10
2019-02-19T13:21:21.401Z,8.53
2019-02-19T13:23:50.654Z,8.23
2019-02-19T13:26:19.686Z,6.90
2019-02-19T13:28:48.708Z,9.63
2019-02-19T13:31:17.744Z,7.63
2019-02-19T13:33:46.729Z,8.50
2019-02-19T13:36:15.783Z,10.23
2019-02-19T13:38:44.968Z,8.80
2019-02-19T13:41:14.017Z,9.63
2019-02-19T13:43:43.000Z,7.77
2019-02-19T13:46:12.058Z,11.50
2019-02-19T13:48:41.061Z,5.37
2019-02-19T13:51:10.091Z,6.30
2019-02-19T13:53:53.836Z,10.23
2019-02-19T13:56:22.819Z,7.63
2019-02-19T13:58:51.954Z,5.37
2019-02-19T14:01:21.064Z,9.97
2019-02-19T14:03:50.088Z,8.40
2019-02-19T14:06:19.081Z,5.77
2019-02-19T14:08:48.118Z,4.40
2019-02-19T14:11:17.239Z,9.10
2019-02-19T14:14:08.271Z,8.20
2019-02-19T14:16:58.867Z,6.67
2019-02-19T14:19:49.848Z,3.03
2019-02-19T14:22:38.754Z,5.80
2019-02-19T14:25:25.873Z,5.00
2019-02-19T14:28:17.575Z,4.30
2019-02-19T14:31:17.617Z,6.43
2019-02-19T14:34:14.859Z,6.57
2019-02-19T14:37:01.735Z,5.63
2019-02-19T14:40:10.335Z,7.53
2019-02-19T14:42:53.118Z,8.37
2019-02-19T14:45:53.400Z,8.47
2019-02-19T14:48:50.449Z,5.67
2019-02-19T14:51:33.604Z,6.07
2019-02-19T14:54:24.415Z,7.47
2019-02-19T14:57:24.273Z,6.07
2019-02-19T15:00:15.014Z,5.27
2019-02-19T15:02:56.801Z,6.87
2019-02-19T15:05:46.726Z,6.77
2019-02-19T15:08:25.941Z,7.37
2019-02-19T15:11:22.827Z,7.20
2019-02-19T15:14:13.843Z,10.03
2019-02-19T15:17:19.987Z,8.63
2019-02-19T15:20:07.980Z,4.67
2019-02-19T15:22:59.048Z,5.87
2019-02-19T15:25:49.244Z,5.83
2019-02-19T15:28:37.352Z,7.40
2019-02-19T15:31:43.685Z,7.30
2019-02-19T15:34:30.250Z,8.57
2019-02-19T15:37:27.053Z,8.33
2019-02-19T15:40:17.802Z,5.70
2019-02-19T15:43:04.522Z,5.03
2019-02-19T15:45:52.549Z,5.57
2019-02-19T15:48:46.602Z,3.57
2019-02-19T15:51:28.037Z,5.23
2019-02-19T15:54:19.983Z,4.83
2019-02-19T15:57:13.124Z,16.23
2019-02-19T15:59:59.874Z,4.40
2019-02-19T16:03:02.943Z,6.10
2019-02-19T16:06:02.557Z,6.77
2019-02-19T16:08:50.589Z,7.40
2019-02-19T16:11:38.453Z,8.67
2019-02-19T16:14:20.586Z,7.03
2019-02-19T16:17:08.003Z,7.87
2019-02-19T16:19:43.045Z,4.47
2019-02-19T16:22:32.528Z,7.40
2019-02-19T16:25:20.523Z,9.50
2019-02-19T16:28:08.486Z,6.97
2019-02-19T16:30:55.394Z,8.27
2019-02-19T16:33:49.639Z,8.33
2019-02-19T16:36:40.402Z,13.67
2019-02-19T16:39:31.494Z,8.87
2019-02-19T16:42:19.472Z,8.43
2019-02-19T16:45:05.984Z,11.60
2019-02-19T16:47:45.144Z,6.20
2019-02-19T16:50:51.296Z,5.83
2019-02-19T16:53:48.409Z,12.57
2019-02-19T16:56:29.911Z,7.73
2019-02-19T16:59:36.161Z,5.20
2019-02-19T17:02:28.068Z,7.90
2019-02-19T17:05:16.184Z,8.90
2019-02-19T17:07:50.395Z,6.43
2019-02-19T17:10:28.294Z,8.70
2019-02-19T17:13:05.431Z,7.20
2019-02-19T17:15:52.112Z,8.77
2019-02-19T17:18:39.065Z,9.03
2019-02-19T17:21:19.442Z,9.77
2019-02-19T17:24:07.421Z,9.93
2019-02-19T17:26:53.902Z,10.37
2019-02-19T17:29:45.314Z,12.13
2019-02-19T17:32:48.621Z,7.50
2019-02-19T17:35:26.860Z,10.23
2019-02-19T17:38:23.725Z,7.50
2019-02-19T17:41:18.226Z,6.17
2019-02-19T17:43:57.951Z,7.27
2019-02-19T17:46:44.539Z,13.30
2019-02-19T17:49:24.405Z,10.13
2019-02-19T17:52:14.494Z,7.90
2019-02-19T17:54:55.896Z,6.90
2019-02-19T17:57:59.143Z,7.90
2019-02-19T18:00:38.336Z,7.97
2019-02-19T18:03:20.100Z,4.43
2019-02-19T18:06:10.891Z,5.57
2019-02-19T18:09:13.994Z,4.30
2019-02-19T18:11:59.991Z,5.63
2019-02-19T18:14:50.856Z,8.87
2019-02-19T18:17:29.953Z,7.23
2019-02-19T18:19:59.956Z,9.73
2019-02-19T18:22:29.019Z,9.80
2019-02-19T18:24:57.993Z,6.77
2019-02-19T18:27:27.086Z,8.03
2019-02-19T18:29:56.181Z,9.73
2019-02-19T18:32:25.286Z,9.57
2019-02-19T18:34:54.568Z,7.53
2019-02-19T18:37:23.680Z,10.37
2019-02-19T18:39:52.763Z,6.67
2019-02-19T18:42:21.836Z,8.50
2019-02-19T18:44:51.132Z,10.50
2019-02-19T18:47:21.740Z,9.20
2019-02-19T18:49:50.886Z,7.47
2019-02-19T18:52:20.272Z,10.53
2019-02-19T18:54:50.401Z,6.90
2019-02-19T18:57:19.695Z,7.73
2019-02-19T18:59:50.522Z,7.87
2019-02-19T19:02:19.884Z,7.60
2019-02-19T19:04:48.823Z,8.30
2019-02-19T19:07:19.446Z,7.43
2019-02-19T19:09:48.642Z,9.03
2019-02-19T19:12:17.718Z,5.87
2019-02-19T19:14:46.729Z,6.77
2019-02-19T19:17:15.728Z,10.83
2019-02-19T19:19:44.805Z,8.27
2019-02-19T19:22:14.980Z,8.37
2019-02-19T19:24:44.005Z,10.60
2019-02-19T19:27:13.145Z,10.43
2019-02-19T19:29:42.220Z,12.30
2019-02-19T19:32:11.297Z,7.67
2019-02-19T19:34:40.387Z,15.73
2019-02-19T19:37:09.456Z,7.03
2019-02-19T19:39:38.544Z,9.17
2019-02-19T19:42:07.650Z,11.77
2019-02-19T19:44:36.702Z,7.43
2019-02-19T19:47:05.798Z,9.43
2019-02-19T19:49:34.932Z,10.63
2019-02-19T19:52:04.040Z,11.10
2019-02-19T19:54:33.079Z,10.10
2019-02-19T19:57:02.094Z,10.57
2019-02-19T19:59:31.061Z,10.13
2019-02-19T20:02:00.146Z,8.30
2019-02-19T20:04:29.345Z,8.67
2019-02-19T20:06:58.411Z,11.40
2019-02-19T20:09:27.427Z,6.43
2019-02-19T20:11:56.451Z,10.80
2019-02-19T20:14:25.504Z,7.93
2019-02-19T20:16:54.496Z,14.43
2019-02-19T20:19:23.565Z,11.07
2019-02-19T20:21:52.605Z,12.10
2019-02-19T20:24:21.660Z,11.33
2019-02-19T20:26:50.732Z,10.67
2019-02-19T20:29:19.858Z,9.57
2019-02-19T20:31:48.889Z,9.40
2019-02-19T20:34:18.105Z,9.33
2019-02-19T20:36:47.241Z,9.73
2019-02-19T20:39:16.336Z,12.17
2019-02-19T20:41:45.311Z,9.63
2019-02-19T20:44:14.241Z,11.30
2019-02-19T20:46:43.401Z,9.30
2019-02-19T20:49:12.346Z,11.07
2019-02-19T20:51:41.340Z,12.17
2019-02-19T20:54:10.357Z,6.80
2019-02-19T20:56:39.302Z,8.87
2019-02-19T20:59:08.395Z,7.93
2019-02-19T21:01:37.433Z,9.20
2019-02-19T21:04:06.344Z,8.73
2019-02-19T21:06:35.279Z,8.53
2019-02-19T21:09:04.501Z,10.27
2019-02-19T21:11:33.597Z,9.60
2019-02-19T21:14:02.589Z,10.97
2019-02-19T21:16:31.608Z,11.37
2019-02-19T21:19:00.608Z,11.10
2019-02-19T21:21:29.630Z,8.83
2019-02-19T21:23:58.695Z,9.27
2019-02-19T21:26:27.719Z,9.27
2019-02-19T21:28:56.712Z,11.20
2019-02-19T21:31:25.721Z,10.77
2019-02-19T21:33:54.721Z,10.37
2019-02-19T21:36:23.659Z,12.80
2019-02-19T21:38:52.731Z,10.47
2019-02-19T21:41:21.669Z,6.50
2019-02-19T21:43:50.512Z,10.33
2019-02-19T21:46:19.663Z,12.53
2019-02-19T21:48:48.641Z,11.43
2019-02-19T21:51:17.709Z,10.40
2019-02-19T21:53:46.684Z,13.20
2019-02-19T21:56:15.671Z,9.83
2019-02-19T21:58:44.743Z,6.17
2019-02-19T22:01:13.795Z,11.97
2019-02-19T22:03:42.716Z,11.27
2019-02-19T22:06:11.783Z,9.23
2019-02-19T22:08:40.778Z,9.87
2019-02-19T22:11:09.728Z,8.03
2019-02-19T22:13:38.654Z,11.03
2019-02-19T22:16:07.672Z,13.27
2019-02-19T22:18:36.676Z,12.27
2019-02-19T22:21:13.908Z,9.93
2019-02-19T22:23:42.877Z,8.07
2019-02-19T22:26:11.876Z,12.73
2019-02-19T22:28:40.876Z,10.47
2019-02-19T22:31:09.856Z,13.10
2019-02-19T22:33:38.854Z,13.53
2019-02-19T22:36:07.847Z,7.50
2019-02-19T22:38:36.936Z,7.63
2019-02-19T22:41:05.942Z,10.73
2019-02-19T22:43:34.965Z,14.33
2019-02-19T22:46:04.884Z,8.70
2019-02-19T22:48:33.942Z,8.70
2019-02-19T22:51:03.023Z,13.23
2019-02-19T22:53:42.627Z,13.47
2019-02-19T22:56:17.303Z,15.33
2019-02-19T22:58:46.361Z,12.83
2019-02-19T23:01:43.181Z,12.13
2019-02-19T23:04:12.098Z,9.27
2019-02-19T23:06:41.100Z,11.33
2019-02-19T23:09:10.147Z,8.60
2019-02-19T23:11:39.079Z,14.30
2019-02-19T23:14:08.183Z,8.00
2019-02-19T23:16:37.208Z,8.70
2019-02-19T23:19:06.195Z,10.00
2019-02-19T23:21:35.162Z,8.17
2019-02-19T23:24:04.062Z,14.73
2019-02-19T23:26:33.096Z,9.00
2019-02-19T23:29:02.193Z,15.23
2019-02-19T23:31:31.122Z,14.03
2019-02-19T23:34:00.204Z,13.17
2019-02-19T23:36:50.714Z,11.97
2019-02-19T23:39:19.837Z,14.20
2019-02-19T23:41:48.964Z,10.27
2019-02-19T23:44:18.044Z,14.27
2019-02-19T23:46:46.999Z,14.07
2019-02-19T23:49:16.014Z,18.90
2019-02-19T23:51:45.040Z,10.77
2019-02-19T23:54:14.120Z,11.20
2019-02-19T23:56:43.189Z,9.90
2019-02-19T23:59:12.258Z,11.67
